sensor_id;sensor_type;location;lat;lon;timestamp;temperature;humidity
51476;DHT22;37554;50.362;7.568;2022-07-06T00:02:14;23.90;45.70
51476;DHT22;37554;50.362;7.568;2022-07-06T00:04:40;23.90;46.30
51476;DHT22;37554;50.362;7.568;2022-07-06T00:07:06;23.80;45.60
51476;DHT22;37554;50.362;7.568;2022-07-06T00:09:32;23.80;45.60
51476;DHT22;37554;50.362;7.568;2022-07-06T00:11:57;23.80;45.60
51476;DHT22;37554;50.362;7.568;2022-07-06T00:14:23;23.80;45.60
51476;DHT22;37554;50.362;7.568;2022-07-06T00:16:49;23.70;45.60
51476;DHT22;37554;50.362;7.568;2022-07-06T00:19:14;23.70;45.60
51476;DHT22;37554;50.362;7.568;2022-07-06T00:21:40;23.70;45.60
51476;DHT22;37554;50.362;7.568;2022-07-06T00:24:06;23.70;45.60
51476;DHT22;37554;50.362;7.568;2022-07-06T00:26:31;23.70;45.60
51476;DHT22;37554;50.362;7.568;2022-07-06T00:28:57;23.60;45.50
51476;DHT22;37554;50.362;7.568;2022-07-06T00:31:23;23.60;45.50
51476;DHT22;37554;50.362;7.568;2022-07-06T00:33:48;23.60;45.60
51476;DHT22;37554;50.362;7.568;2022-07-06T00:36:14;23.50;45.60
51476;DHT22;37554;50.362;7.568;2022-07-06T00:38:39;23.50;45.60
51476;DHT22;37554;50.362;7.568;2022-07-06T00:41:05;23.50;46.30
51476;DHT22;37554;50.362;7.568;2022-07-06T00:43:51;23.50;45.70
51476;DHT22;37554;50.362;7.568;2022-07-06T00:46:17;23.50;45.90
51476;DHT22;37554;50.362;7.568;2022-07-06T00:48:43;23.50;45.80
51476;DHT22;37554;50.362;7.568;2022-07-06T00:51:09;23.50;45.80
51476;DHT22;37554;50.362;7.568;2022-07-06T00:53:35;23.40;45.90
51476;DHT22;37554;50.362;7.568;2022-07-06T00:56:01;23.40;45.90
51476;DHT22;37554;50.362;7.568;2022-07-06T00:58:27;23.40;45.90
51476;DHT22;37554;50.362;7.568;2022-07-06T01:00:53;23.40;46.00
51476;DHT22;37554;50.362;7.568;2022-07-06T01:03:18;23.30;46.00
51476;DHT22;37554;50.362;7.568;2022-07-06T01:05:44;23.30;46.10
51476;DHT22;37554;50.362;7.568;2022-07-06T01:08:10;23.30;46.10
51476;DHT22;37554;50.362;7.568;2022-07-06T01:10:36;23.30;46.20
51476;DHT22;37554;50.362;7.568;2022-07-06T01:13:02;23.30;46.30
51476;DHT22;37554;50.362;7.568;2022-07-06T01:15:27;23.30;46.30
51476;DHT22;37554;50.362;7.568;2022-07-06T01:17:53;23.20;46.30
51476;DHT22;37554;50.362;7.568;2022-07-06T01:20:23;23.20;46.40
51476;DHT22;37554;50.362;7.568;2022-07-06T01:22:50;23.20;46.40
51476;DHT22;37554;50.362;7.568;2022-07-06T01:25:16;23.20;46.50
51476;DHT22;37554;50.362;7.568;2022-07-06T01:27:43;23.10;46.50
51476;DHT22;37554;50.362;7.568;2022-07-06T01:30:11;23.10;46.60
51476;DHT22;37554;50.362;7.568;2022-07-06T01:32:38;23.10;46.60
51476;DHT22;37554;50.362;7.568;2022-07-06T01:35:08;23.00;46.60
51476;DHT22;37554;50.362;7.568;2022-07-06T01:37:34;23.00;46.70
51476;DHT22;37554;50.362;7.568;2022-07-06T01:40:01;23.00;47.40
51476;DHT22;37554;50.362;7.568;2022-07-06T01:42:27;23.00;46.70
51476;DHT22;37554;50.362;7.568;2022-07-06T01:44:53;23.00;46.70
51476;DHT22;37554;50.362;7.568;2022-07-06T01:47:19;23.00;46.80
51476;DHT22;37554;50.362;7.568;2022-07-06T01:49:45;22.90;46.80
51476;DHT22;37554;50.362;7.568;2022-07-06T01:52:11;22.90;46.80
51476;DHT22;37554;50.362;7.568;2022-07-06T01:54:37;22.90;46.80
51476;DHT22;37554;50.362;7.568;2022-07-06T01:57:02;22.90;46.90
51476;DHT22;37554;50.362;7.568;2022-07-06T01:59:28;22.90;46.80
51476;DHT22;37554;50.362;7.568;2022-07-06T02:01:54;22.90;46.80
51476;DHT22;37554;50.362;7.568;2022-07-06T02:04:19;22.90;46.90
51476;DHT22;37554;50.362;7.568;2022-07-06T02:06:45;22.80;46.80
51476;DHT22;37554;50.362;7.568;2022-07-06T02:09:10;22.80;46.80
51476;DHT22;37554;50.362;7.568;2022-07-06T02:11:36;22.80;46.80
51476;DHT22;37554;50.362;7.568;2022-07-06T02:14:02;22.80;46.90
51476;DHT22;37554;50.362;7.568;2022-07-06T02:16:28;22.80;46.90
51476;DHT22;37554;50.362;7.568;2022-07-06T02:18:53;22.70;46.90
51476;DHT22;37554;50.362;7.568;2022-07-06T02:21:19;22.70;47.00
51476;DHT22;37554;50.362;7.568;2022-07-06T02:23:45;22.70;47.10
51476;DHT22;37554;50.362;7.568;2022-07-06T02:26:10;22.60;47.10
51476;DHT22;37554;50.362;7.568;2022-07-06T02:28:36;22.70;47.10
51476;DHT22;37554;50.362;7.568;2022-07-06T02:31:02;22.60;47.10
51476;DHT22;37554;50.362;7.568;2022-07-06T02:33:28;22.60;47.10
51476;DHT22;37554;50.362;7.568;2022-07-06T02:35:53;22.60;47.10
51476;DHT22;37554;50.362;7.568;2022-07-06T02:38:19;22.60;47.20
51476;DHT22;37554;50.362;7.568;2022-07-06T02:40:44;22.60;47.20
51476;DHT22;37554;50.362;7.568;2022-07-06T02:43:10;22.60;47.30
51476;DHT22;37554;50.362;7.568;2022-07-06T02:45:36;22.50;47.20
51476;DHT22;37554;50.362;7.568;2022-07-06T02:48:02;22.50;47.30
51476;DHT22;37554;50.362;7.568;2022-07-06T02:50:27;22.50;48.00
51476;DHT22;37554;50.362;7.568;2022-07-06T02:52:53;22.40;47.30
51476;DHT22;37554;50.362;7.568;2022-07-06T02:55:20;22.40;47.30
51476;DHT22;37554;50.362;7.568;2022-07-06T02:57:46;22.40;47.30
51476;DHT22;37554;50.362;7.568;2022-07-06T03:00:12;22.40;47.30
51476;DHT22;37554;50.362;7.568;2022-07-06T03:02:38;22.30;47.90
51476;DHT22;37554;50.362;7.568;2022-07-06T03:05:04;22.30;47.30
51476;DHT22;37554;50.362;7.568;2022-07-06T03:07:29;22.30;47.30
51476;DHT22;37554;50.362;7.568;2022-07-06T03:09:55;22.30;48.00
51476;DHT22;37554;50.362;7.568;2022-07-06T03:12:21;22.30;47.30
51476;DHT22;37554;50.362;7.568;2022-07-06T03:14:46;22.20;47.30
51476;DHT22;37554;50.362;7.568;2022-07-06T03:17:12;22.20;47.30
51476;DHT22;37554;50.362;7.568;2022-07-06T03:19:38;22.20;47.40
51476;DHT22;37554;50.362;7.568;2022-07-06T03:22:04;22.10;47.40
51476;DHT22;37554;50.362;7.568;2022-07-06T03:24:29;22.10;47.40
51476;DHT22;37554;50.362;7.568;2022-07-06T03:26:55;22.10;47.50
51476;DHT22;37554;50.362;7.568;2022-07-06T03:29:20;22.10;48.10
51476;DHT22;37554;50.362;7.568;2022-07-06T03:31:46;22.00;47.40
51476;DHT22;37554;50.362;7.568;2022-07-06T03:34:12;22.10;47.50
51476;DHT22;37554;50.362;7.568;2022-07-06T03:36:38;22.10;47.50
51476;DHT22;37554;50.362;7.568;2022-07-06T03:39:04;22.00;47.50
51476;DHT22;37554;50.362;7.568;2022-07-06T03:41:30;22.00;47.40
51476;DHT22;37554;50.362;7.568;2022-07-06T03:43:56;22.00;47.40
51476;DHT22;37554;50.362;7.568;2022-07-06T03:46:21;22.00;47.50
51476;DHT22;37554;50.362;7.568;2022-07-06T03:48:47;21.90;47.50
51476;DHT22;37554;50.362;7.568;2022-07-06T03:51:13;21.90;47.50
51476;DHT22;37554;50.362;7.568;2022-07-06T03:53:38;21.90;47.50
51476;DHT22;37554;50.362;7.568;2022-07-06T03:56:04;21.90;47.60
51476;DHT22;37554;50.362;7.568;2022-07-06T03:58:48;21.80;47.50
51476;DHT22;37554;50.362;7.568;2022-07-06T04:01:14;21.90;47.60
51476;DHT22;37554;50.362;7.568;2022-07-06T04:03:40;21.80;47.50
51476;DHT22;37554;50.362;7.568;2022-07-06T04:06:06;21.80;47.60
51476;DHT22;37554;50.362;7.568;2022-07-06T04:08:32;21.80;47.50
51476;DHT22;37554;50.362;7.568;2022-07-06T04:10:57;21.70;47.60
51476;DHT22;37554;50.362;7.568;2022-07-06T04:13:23;21.70;47.60
51476;DHT22;37554;50.362;7.568;2022-07-06T04:15:51;21.70;47.60
51476;DHT22;37554;50.362;7.568;2022-07-06T04:18:17;21.70;47.60
51476;DHT22;37554;50.362;7.568;2022-07-06T04:20:42;21.70;47.60
51476;DHT22;37554;50.362;7.568;2022-07-06T04:23:08;21.70;47.60
51476;DHT22;37554;50.362;7.568;2022-07-06T04:25:34;21.60;47.60
51476;DHT22;37554;50.362;7.568;2022-07-06T04:28:00;21.70;47.60
51476;DHT22;37554;50.362;7.568;2022-07-06T04:30:26;21.60;47.50
51476;DHT22;37554;50.362;7.568;2022-07-06T04:32:51;21.60;47.50
51476;DHT22;37554;50.362;7.568;2022-07-06T04:35:17;21.70;47.60
51476;DHT22;37554;50.362;7.568;2022-07-06T04:37:42;21.60;47.50
51476;DHT22;37554;50.362;7.568;2022-07-06T04:40:11;21.70;47.50
51476;DHT22;37554;50.362;7.568;2022-07-06T04:42:37;21.60;47.60
51476;DHT22;37554;50.362;7.568;2022-07-06T04:45:03;21.60;47.60
51476;DHT22;37554;50.362;7.568;2022-07-06T04:47:29;21.60;47.50
51476;DHT22;37554;50.362;7.568;2022-07-06T04:49:54;21.60;47.50
51476;DHT22;37554;50.362;7.568;2022-07-06T04:52:20;21.60;47.50
51476;DHT22;37554;50.362;7.568;2022-07-06T04:54:45;21.60;47.40
51476;DHT22;37554;50.362;7.568;2022-07-06T04:57:11;21.60;47.40
51476;DHT22;37554;50.362;7.568;2022-07-06T04:59:37;21.60;47.50
51476;DHT22;37554;50.362;7.568;2022-07-06T05:02:02;21.70;47.50
51476;DHT22;37554;50.362;7.568;2022-07-06T05:04:28;21.60;47.50
51476;DHT22;37554;50.362;7.568;2022-07-06T05:06:54;21.70;47.60
51476;DHT22;37554;50.362;7.568;2022-07-06T05:09:19;21.70;47.50
51476;DHT22;37554;50.362;7.568;2022-07-06T05:11:45;21.70;47.60
51476;DHT22;37554;50.362;7.568;2022-07-06T05:14:10;21.70;47.60
51476;DHT22;37554;50.362;7.568;2022-07-06T05:16:36;21.70;47.60
51476;DHT22;37554;50.362;7.568;2022-07-06T05:19:02;21.70;47.60
51476;DHT22;37554;50.362;7.568;2022-07-06T05:21:28;21.70;47.60
51476;DHT22;37554;50.362;7.568;2022-07-06T05:23:53;21.70;47.70
51476;DHT22;37554;50.362;7.568;2022-07-06T05:26:19;21.70;47.70
51476;DHT22;37554;50.362;7.568;2022-07-06T05:28:45;21.70;47.70
51476;DHT22;37554;50.362;7.568;2022-07-06T05:31:11;21.80;47.70
51476;DHT22;37554;50.362;7.568;2022-07-06T05:33:36;21.80;47.70
51476;DHT22;37554;50.362;7.568;2022-07-06T05:36:02;21.80;47.60
51476;DHT22;37554;50.362;7.568;2022-07-06T05:38:28;21.90;47.50
51476;DHT22;37554;50.362;7.568;2022-07-06T05:40:53;21.90;47.40
51476;DHT22;37554;50.362;7.568;2022-07-06T05:43:19;22.00;47.40
51476;DHT22;37554;50.362;7.568;2022-07-06T05:45:45;22.00;47.40
51476;DHT22;37554;50.362;7.568;2022-07-06T05:48:10;21.80;48.20
51476;DHT22;37554;50.362;7.568;2022-07-06T05:50:54;21.60;47.90
51476;DHT22;37554;50.362;7.568;2022-07-06T05:53:20;21.40;48.40
51476;DHT22;37554;50.362;7.568;2022-07-06T05:55:47;21.30;48.80
51476;DHT22;37554;50.362;7.568;2022-07-06T05:58:13;21.20;49.20
51476;DHT22;37554;50.362;7.568;2022-07-06T06:00:38;21.10;49.40
51476;DHT22;37554;50.362;7.568;2022-07-06T06:03:04;21.10;49.40
51476;DHT22;37554;50.362;7.568;2022-07-06T06:05:30;21.10;49.40
51476;DHT22;37554;50.362;7.568;2022-07-06T06:07:55;21.00;49.40
51476;DHT22;37554;50.362;7.568;2022-07-06T06:10:21;21.00;49.40
51476;DHT22;37554;50.362;7.568;2022-07-06T06:12:47;21.00;49.20
51476;DHT22;37554;50.362;7.568;2022-07-06T06:15:13;20.90;50.10
51476;DHT22;37554;50.362;7.568;2022-07-06T06:17:39;21.00;50.00
51476;DHT22;37554;50.362;7.568;2022-07-06T06:20:07;21.00;50.50
51476;DHT22;37554;50.362;7.568;2022-07-06T06:22:50;21.00;50.50
51476;DHT22;37554;50.362;7.568;2022-07-06T06:25:20;21.00;50.50
51476;DHT22;37554;50.362;7.568;2022-07-06T06:27:46;20.90;50.50
51476;DHT22;37554;50.362;7.568;2022-07-06T06:30:12;20.80;50.40
51476;DHT22;37554;50.362;7.568;2022-07-06T06:32:38;20.80;50.50
51476;DHT22;37554;50.362;7.568;2022-07-06T06:35:05;20.80;50.70
51476;DHT22;37554;50.362;7.568;2022-07-06T06:37:31;20.80;50.70
51476;DHT22;37554;50.362;7.568;2022-07-06T06:39:57;20.70;50.60
51476;DHT22;37554;50.362;7.568;2022-07-06T06:42:23;20.80;50.90
51476;DHT22;37554;50.362;7.568;2022-07-06T06:44:49;20.80;51.00
51476;DHT22;37554;50.362;7.568;2022-07-06T06:47:14;20.80;50.80
51476;DHT22;37554;50.362;7.568;2022-07-06T06:49:40;21.00;50.70
51476;DHT22;37554;50.362;7.568;2022-07-06T06:52:05;21.10;50.50
51476;DHT22;37554;50.362;7.568;2022-07-06T06:54:31;21.00;50.20
51476;DHT22;37554;50.362;7.568;2022-07-06T06:56:57;21.00;50.30
51476;DHT22;37554;50.362;7.568;2022-07-06T06:59:23;21.00;50.50
51476;DHT22;37554;50.362;7.568;2022-07-06T07:01:48;21.00;50.60
51476;DHT22;37554;50.362;7.568;2022-07-06T07:04:14;20.90;50.70
51476;DHT22;37554;50.362;7.568;2022-07-06T07:06:40;21.00;50.90
51476;DHT22;37554;50.362;7.568;2022-07-06T07:09:06;21.10;50.80
51476;DHT22;37554;50.362;7.568;2022-07-06T07:11:31;21.20;50.50
51476;DHT22;37554;50.362;7.568;2022-07-06T07:13:57;21.20;50.50
51476;DHT22;37554;50.362;7.568;2022-07-06T07:16:25;21.30;50.60
51476;DHT22;37554;50.362;7.568;2022-07-06T07:18:51;21.20;50.50
51476;DHT22;37554;50.362;7.568;2022-07-06T07:21:16;21.30;50.60
51476;DHT22;37554;50.362;7.568;2022-07-06T07:23:42;21.30;50.40
51476;DHT22;37554;50.362;7.568;2022-07-06T07:26:08;21.40;50.30
51476;DHT22;37554;50.362;7.568;2022-07-06T07:28:34;21.50;50.30
51476;DHT22;37554;50.362;7.568;2022-07-06T07:30:59;21.50;50.50
51476;DHT22;37554;50.362;7.568;2022-07-06T07:33:25;21.40;50.00
51476;DHT22;37554;50.362;7.568;2022-07-06T07:35:50;21.50;50.30
51476;DHT22;37554;50.362;7.568;2022-07-06T07:38:16;21.60;50.10
51476;DHT22;37554;50.362;7.568;2022-07-06T07:40:42;21.80;49.80
51476;DHT22;37554;50.362;7.568;2022-07-06T07:43:07;21.80;49.30
51476;DHT22;37554;50.362;7.568;2022-07-06T07:45:33;21.60;49.20
51476;DHT22;37554;50.362;7.568;2022-07-06T07:47:59;21.50;49.20
51476;DHT22;37554;50.362;7.568;2022-07-06T07:50:25;21.50;49.60
51476;DHT22;37554;50.362;7.568;2022-07-06T07:52:52;21.40;49.70
51476;DHT22;37554;50.362;7.568;2022-07-06T07:55:18;21.40;49.70
51476;DHT22;37554;50.362;7.568;2022-07-06T07:57:43;21.50;49.40
51476;DHT22;37554;50.362;7.568;2022-07-06T08:00:10;21.60;49.30
51476;DHT22;37554;50.362;7.568;2022-07-06T08:02:35;21.60;49.30
51476;DHT22;37554;50.362;7.568;2022-07-06T08:05:01;21.50;49.30
51476;DHT22;37554;50.362;7.568;2022-07-06T08:07:27;21.30;49.30
51476;DHT22;37554;50.362;7.568;2022-07-06T08:09:53;21.20;49.50
51476;DHT22;37554;50.362;7.568;2022-07-06T08:12:18;21.20;49.80
51476;DHT22;37554;50.362;7.568;2022-07-06T08:14:44;21.30;50.00
51476;DHT22;37554;50.362;7.568;2022-07-06T08:17:09;21.30;50.10
51476;DHT22;37554;50.362;7.568;2022-07-06T08:19:35;21.30;50.00
51476;DHT22;37554;50.362;7.568;2022-07-06T08:22:01;21.40;49.70
51476;DHT22;37554;50.362;7.568;2022-07-06T08:24:34;21.30;49.40
51476;DHT22;37554;50.362;7.568;2022-07-06T08:27:00;21.30;49.40
51476;DHT22;37554;50.362;7.568;2022-07-06T08:29:26;21.30;49.60
51476;DHT22;37554;50.362;7.568;2022-07-06T08:31:52;21.30;49.50
51476;DHT22;37554;50.362;7.568;2022-07-06T08:34:17;21.30;49.40
51476;DHT22;37554;50.362;7.568;2022-07-06T08:36:43;21.50;49.60
51476;DHT22;37554;50.362;7.568;2022-07-06T08:39:09;21.70;49.10
51476;DHT22;37554;50.362;7.568;2022-07-06T08:41:36;21.90;49.10
51476;DHT22;37554;50.362;7.568;2022-07-06T08:44:04;22.10;48.70
51476;DHT22;37554;50.362;7.568;2022-07-06T08:46:30;22.10;48.00
51476;DHT22;37554;50.362;7.568;2022-07-06T08:48:56;22.00;48.20
51476;DHT22;37554;50.362;7.568;2022-07-06T08:51:24;21.90;48.20
51476;DHT22;37554;50.362;7.568;2022-07-06T08:53:50;21.90;48.40
51476;DHT22;37554;50.362;7.568;2022-07-06T08:56:18;21.80;48.40
51476;DHT22;37554;50.362;7.568;2022-07-06T08:58:44;21.80;48.40
51476;DHT22;37554;50.362;7.568;2022-07-06T09:01:11;21.90;48.50
51476;DHT22;37554;50.362;7.568;2022-07-06T09:03:39;22.00;48.40
51476;DHT22;37554;50.362;7.568;2022-07-06T09:06:06;22.10;48.10
51476;DHT22;37554;50.362;7.568;2022-07-06T09:08:33;22.20;47.80
51476;DHT22;37554;50.362;7.568;2022-07-06T09:10:58;22.30;47.80
51476;DHT22;37554;50.362;7.568;2022-07-06T09:13:24;22.40;47.90
51476;DHT22;37554;50.362;7.568;2022-07-06T09:15:50;22.40;47.40
51476;DHT22;37554;50.362;7.568;2022-07-06T09:18:15;22.50;47.30
51476;DHT22;37554;50.362;7.568;2022-07-06T09:20:41;22.50;47.30
51476;DHT22;37554;50.362;7.568;2022-07-06T09:23:07;22.70;47.20
51476;DHT22;37554;50.362;7.568;2022-07-06T09:25:34;22.70;46.90
51476;DHT22;37554;50.362;7.568;2022-07-06T09:28:01;22.70;46.90
51476;DHT22;37554;50.362;7.568;2022-07-06T09:30:28;22.80;46.70
51476;DHT22;37554;50.362;7.568;2022-07-06T09:32:56;23.00;45.80
51476;DHT22;37554;50.362;7.568;2022-07-06T09:35:27;23.30;45.00
51476;DHT22;37554;50.362;7.568;2022-07-06T09:38:04;23.40;44.70
51476;DHT22;37554;50.362;7.568;2022-07-06T09:40:31;23.50;45.60
51476;DHT22;37554;50.362;7.568;2022-07-06T09:45:52;23.40;44.80
51476;DHT22;37554;50.362;7.568;2022-07-06T09:48:24;23.40;45.20
51476;DHT22;37554;50.362;7.568;2022-07-06T09:50:53;23.30;45.10
51476;DHT22;37554;50.362;7.568;2022-07-06T09:53:20;23.30;45.10
51476;DHT22;37554;50.362;7.568;2022-07-06T09:55:51;23.20;44.90
51476;DHT22;37554;50.362;7.568;2022-07-06T09:58:17;23.20;45.00
51476;DHT22;37554;50.362;7.568;2022-07-06T10:00:44;23.30;44.90
51476;DHT22;37554;50.362;7.568;2022-07-06T10:03:10;23.70;45.30
51476;DHT22;37554;50.362;7.568;2022-07-06T10:05:38;23.90;44.80
51476;DHT22;37554;50.362;7.568;2022-07-06T10:08:06;24.10;43.90
51476;DHT22;37554;50.362;7.568;2022-07-06T10:10:35;24.30;43.10
51476;DHT22;37554;50.362;7.568;2022-07-06T10:13:01;24.40;42.60
51476;DHT22;37554;50.362;7.568;2022-07-06T10:15:29;24.40;42.30
51476;DHT22;37554;50.362;7.568;2022-07-06T10:18:03;24.50;41.70
51476;DHT22;37554;50.362;7.568;2022-07-06T10:20:31;24.60;42.60
51476;DHT22;37554;50.362;7.568;2022-07-06T10:22:59;24.70;42.00
51476;DHT22;37554;50.362;7.568;2022-07-06T10:25:26;24.70;41.80
51476;DHT22;37554;50.362;7.568;2022-07-06T10:27:53;24.60;41.90
51476;DHT22;37554;50.362;7.568;2022-07-06T10:30:20;24.50;42.00
51476;DHT22;37554;50.362;7.568;2022-07-06T10:32:47;24.50;42.00
51476;DHT22;37554;50.362;7.568;2022-07-06T10:35:14;24.50;42.00
51476;DHT22;37554;50.362;7.568;2022-07-06T10:37:40;24.70;42.20
51476;DHT22;37554;50.362;7.568;2022-07-06T10:40:07;24.90;42.10
51476;DHT22;37554;50.362;7.568;2022-07-06T10:43:02;25.00;41.80
51476;DHT22;37554;50.362;7.568;2022-07-06T10:50:46;25.30;41.00
51476;DHT22;37554;50.362;7.568;2022-07-06T10:53:16;25.20;41.10
51476;DHT22;37554;50.362;7.568;2022-07-06T10:55:47;25.10;41.40
51476;DHT22;37554;50.362;7.568;2022-07-06T10:58:14;25.10;41.70
51476;DHT22;37554;50.362;7.568;2022-07-06T11:03:44;24.80;41.10
51476;DHT22;37554;50.362;7.568;2022-07-06T11:06:16;24.70;41.00
51476;DHT22;37554;50.362;7.568;2022-07-06T11:08:57;24.70;41.60
51476;DHT22;37554;50.362;7.568;2022-07-06T11:11:43;24.60;41.80
51476;DHT22;37554;50.362;7.568;2022-07-06T11:19:15;24.20;41.70
51476;DHT22;37554;50.362;7.568;2022-07-06T11:21:55;24.20;42.30
51476;DHT22;37554;50.362;7.568;2022-07-06T11:24:28;24.40;42.60
51476;DHT22;37554;50.362;7.568;2022-07-06T11:26:55;25.30;41.60
51476;DHT22;37554;50.362;7.568;2022-07-06T11:29:25;26.30;40.60
51476;DHT22;37554;50.362;7.568;2022-07-06T11:31:57;26.60;40.00
51476;DHT22;37554;50.362;7.568;2022-07-06T11:34:26;26.50;39.50
51476;DHT22;37554;50.362;7.568;2022-07-06T11:36:56;26.70;38.80
51476;DHT22;37554;50.362;7.568;2022-07-06T11:39:22;27.00;38.30
51476;DHT22;37554;50.362;7.568;2022-07-06T11:41:48;27.00;38.10
51476;DHT22;37554;50.362;7.568;2022-07-06T11:44:14;26.90;38.20
51476;DHT22;37554;50.362;7.568;2022-07-06T11:46:39;26.70;38.50
51476;DHT22;37554;50.362;7.568;2022-07-06T11:49:08;26.50;38.40
51476;DHT22;37554;50.362;7.568;2022-07-06T11:51:39;26.60;38.60
51476;DHT22;37554;50.362;7.568;2022-07-06T11:54:11;27.10;38.50
51476;DHT22;37554;50.362;7.568;2022-07-06T11:56:38;27.80;37.70
51476;DHT22;37554;50.362;7.568;2022-07-06T11:59:04;28.40;37.10
51476;DHT22;37554;50.362;7.568;2022-07-06T12:01:31;28.90;36.70
51476;DHT22;37554;50.362;7.568;2022-07-06T12:04:01;29.20;36.20
51476;DHT22;37554;50.362;7.568;2022-07-06T12:06:29;28.70;35.80
51476;DHT22;37554;50.362;7.568;2022-07-06T12:08:59;28.00;36.40
51476;DHT22;37554;50.362;7.568;2022-07-06T12:11:27;27.60;36.60
51476;DHT22;37554;50.362;7.568;2022-07-06T12:13:59;27.30;37.00
51476;DHT22;37554;50.362;7.568;2022-07-06T12:16:34;27.50;36.80
51476;DHT22;37554;50.362;7.568;2022-07-06T12:19:02;27.60;36.90
51476;DHT22;37554;50.362;7.568;2022-07-06T12:21:28;27.80;36.70
51476;DHT22;37554;50.362;7.568;2022-07-06T12:23:54;28.50;36.10
51476;DHT22;37554;50.362;7.568;2022-07-06T12:26:23;29.00;35.50
51476;DHT22;37554;50.362;7.568;2022-07-06T12:29:11;29.20;35.10
51476;DHT22;37554;50.362;7.568;2022-07-06T12:34:14;29.30;34.00
51476;DHT22;37554;50.362;7.568;2022-07-06T12:39:15;29.10;33.80
51476;DHT22;37554;50.362;7.568;2022-07-06T12:42:02;28.90;34.60
51476;DHT22;37554;50.362;7.568;2022-07-06T12:44:29;28.50;34.30
51476;DHT22;37554;50.362;7.568;2022-07-06T12:47:06;28.00;35.20
51476;DHT22;37554;50.362;7.568;2022-07-06T12:49:33;27.70;35.70
51476;DHT22;37554;50.362;7.568;2022-07-06T12:52:13;28.30;35.70
51476;DHT22;37554;50.362;7.568;2022-07-06T12:54:47;28.90;34.90
51476;DHT22;37554;50.362;7.568;2022-07-06T12:57:20;29.30;34.60
51476;DHT22;37554;50.362;7.568;2022-07-06T13:04:58;30.20;33.90
51476;DHT22;37554;50.362;7.568;2022-07-06T13:07:26;30.40;33.80
51476;DHT22;37554;50.362;7.568;2022-07-06T13:09:52;30.60;33.60
51476;DHT22;37554;50.362;7.568;2022-07-06T13:12:19;30.20;33.80
51476;DHT22;37554;50.362;7.568;2022-07-06T13:14:44;30.00;34.10
51476;DHT22;37554;50.362;7.568;2022-07-06T13:17:10;29.50;34.00
51476;DHT22;37554;50.362;7.568;2022-07-06T13:19:35;28.80;34.30
51476;DHT22;37554;50.362;7.568;2022-07-06T13:22:01;28.40;35.00
51476;DHT22;37554;50.362;7.568;2022-07-06T13:24:27;28.60;34.80
51476;DHT22;37554;50.362;7.568;2022-07-06T13:26:54;28.50;34.80
51476;DHT22;37554;50.362;7.568;2022-07-06T13:29:21;28.20;35.30
51476;DHT22;37554;50.362;7.568;2022-07-06T13:31:47;28.10;35.20
51476;DHT22;37554;50.362;7.568;2022-07-06T13:34:12;28.20;35.20
51476;DHT22;37554;50.362;7.568;2022-07-06T13:36:41;28.10;35.40
51476;DHT22;37554;50.362;7.568;2022-07-06T13:39:07;28.00;35.40
51476;DHT22;37554;50.362;7.568;2022-07-06T13:41:33;28.20;35.80
51476;DHT22;37554;50.362;7.568;2022-07-06T13:43:59;28.60;35.80
51476;DHT22;37554;50.362;7.568;2022-07-06T13:46:29;29.00;35.60
51476;DHT22;37554;50.362;7.568;2022-07-06T13:48:55;28.80;35.50
51476;DHT22;37554;50.362;7.568;2022-07-06T13:51:22;28.80;35.70
51476;DHT22;37554;50.362;7.568;2022-07-06T13:53:48;29.10;35.40
51476;DHT22;37554;50.362;7.568;2022-07-06T13:56:13;29.20;35.20
51476;DHT22;37554;50.362;7.568;2022-07-06T13:58:39;29.00;34.90
51476;DHT22;37554;50.362;7.568;2022-07-06T14:01:05;28.70;35.20
51476;DHT22;37554;50.362;7.568;2022-07-06T14:03:31;28.60;35.30
51476;DHT22;37554;50.362;7.568;2022-07-06T14:06:00;28.30;35.40
51476;DHT22;37554;50.362;7.568;2022-07-06T14:08:27;28.30;35.60
51476;DHT22;37554;50.362;7.568;2022-07-06T14:10:54;28.30;35.80
51476;DHT22;37554;50.362;7.568;2022-07-06T14:13:21;28.20;35.70
51476;DHT22;37554;50.362;7.568;2022-07-06T14:15:47;28.10;35.50
51476;DHT22;37554;50.362;7.568;2022-07-06T14:18:12;28.20;35.80
51476;DHT22;37554;50.362;7.568;2022-07-06T14:20:40;28.10;35.70
51476;DHT22;37554;50.362;7.568;2022-07-06T14:23:06;28.10;36.20
51476;DHT22;37554;50.362;7.568;2022-07-06T14:25:32;28.00;35.70
51476;DHT22;37554;50.362;7.568;2022-07-06T14:27:58;27.90;35.80
51476;DHT22;37554;50.362;7.568;2022-07-06T14:30:25;27.80;35.80
51476;DHT22;37554;50.362;7.568;2022-07-06T14:32:51;27.80;35.70
51476;DHT22;37554;50.362;7.568;2022-07-06T14:35:17;27.80;35.80
51476;DHT22;37554;50.362;7.568;2022-07-06T14:37:42;27.70;35.80
51476;DHT22;37554;50.362;7.568;2022-07-06T14:40:09;27.70;35.90
51476;DHT22;37554;50.362;7.568;2022-07-06T14:42:34;27.70;35.70
51476;DHT22;37554;50.362;7.568;2022-07-06T14:45:00;27.70;35.70
51476;DHT22;37554;50.362;7.568;2022-07-06T14:47:26;27.60;36.00
51476;DHT22;37554;50.362;7.568;2022-07-06T14:49:51;27.60;36.20
51476;DHT22;37554;50.362;7.568;2022-07-06T14:52:18;27.70;36.10
51476;DHT22;37554;50.362;7.568;2022-07-06T14:54:44;27.70;35.90
51476;DHT22;37554;50.362;7.568;2022-07-06T14:57:10;27.90;36.00
51476;DHT22;37554;50.362;7.568;2022-07-06T14:59:35;28.00;35.90
51476;DHT22;37554;50.362;7.568;2022-07-06T15:02:02;28.10;36.00
51476;DHT22;37554;50.362;7.568;2022-07-06T15:04:28;28.10;35.80
51476;DHT22;37554;50.362;7.568;2022-07-06T15:06:54;28.00;35.90
51476;DHT22;37554;50.362;7.568;2022-07-06T15:09:20;27.90;35.80
51476;DHT22;37554;50.362;7.568;2022-07-06T15:11:45;27.90;36.00
51476;DHT22;37554;50.362;7.568;2022-07-06T15:14:12;27.80;36.00
51476;DHT22;37554;50.362;7.568;2022-07-06T15:16:38;27.70;36.10
51476;DHT22;37554;50.362;7.568;2022-07-06T15:19:04;27.70;35.90
51476;DHT22;37554;50.362;7.568;2022-07-06T15:21:30;27.70;35.80
51476;DHT22;37554;50.362;7.568;2022-07-06T15:23:56;27.80;35.70
51476;DHT22;37554;50.362;7.568;2022-07-06T15:26:22;27.80;35.70
51476;DHT22;37554;50.362;7.568;2022-07-06T15:28:47;27.70;35.70
51476;DHT22;37554;50.362;7.568;2022-07-06T15:31:13;27.40;35.90
51476;DHT22;37554;50.362;7.568;2022-07-06T15:33:39;27.30;36.20
51476;DHT22;37554;50.362;7.568;2022-07-06T15:36:05;27.20;36.60
51476;DHT22;37554;50.362;7.568;2022-07-06T15:38:30;27.10;36.50
51476;DHT22;37554;50.362;7.568;2022-07-06T15:40:57;27.10;36.60
51476;DHT22;37554;50.362;7.568;2022-07-06T15:43:27;27.10;36.40
51476;DHT22;37554;50.362;7.568;2022-07-06T15:45:56;27.00;36.30
51476;DHT22;37554;50.362;7.568;2022-07-06T15:48:23;27.00;36.30
51476;DHT22;37554;50.362;7.568;2022-07-06T15:50:49;27.00;36.40
51476;DHT22;37554;50.362;7.568;2022-07-06T15:53:15;26.90;37.00
51476;DHT22;37554;50.362;7.568;2022-07-06T15:55:41;26.80;36.20